This is the latest recevied weather packets stored in our database for station/object AC2VK-1. If no packets are shown the sender has not sent any weather packets the latest 10 day(s).
| Time | Temp. | Humidity | Pressure | Rain* | Wind** | Luminosity | Snow |
|---|---|---|---|---|---|---|---|
| 1777993157 | 21.67° C | 54% | 1016.5 hPa | 0 mm | - | - | - |
| 1777992557 | 21.67° C | 57% | 1016.6 hPa | 0 mm | - | - | - |
| 1777991957 | 21.67° C | 58% | 1016.5 hPa | 0 mm | - | - | - |
| 1777991357 | 20.56° C | 61% | 1016.4 hPa | 0 mm | - | - | - |
| 1777990757 | 20.56° C | 60% | 1016.6 hPa | 0 mm | - | - | - |
| 1777989557 | 19.44° C | 64% | 1016.9 hPa | 0 mm | - | - | - |
| 1777988957 | 18.33° C | 66% | 1016.8 hPa | 0 mm | - | - | - |
| 1777988357 | 17.78° C | 68% | 1016.8 hPa | 0 mm | - | - | - |
| 1777987757 | 16.67° C | 70% | 1016.9 hPa | 0 mm | - | - | - |
| 1777987157 | 16.67° C | 70% | 1016.8 hPa | 0 mm | - | - | - |
| 1777986557 | 16.67° C | 70% | 1016.7 hPa | 0 mm | - | - | - |
| 1777985957 | 16.11° C | 72% | 1016.5 hPa | 0 mm | - | - | - |
| 1777985357 | 15° C | 73% | 1016.5 hPa | 0 mm | - | - | - |
| 1777984757 | 14.44° C | 74% | 1016.3 hPa | 0 mm | - | - | - |
| 1777984157 | 14.44° C | 74% | 1016.3 hPa | 0 mm | - | - | - |
| 1777983557 | 13.89° C | 75% | 1016.3 hPa | 0 mm | - | - | - |
| 1777982957 | 13.33° C | 75% | 1016.2 hPa | 0 mm | - | - | - |
| 1777982357 | 13.33° C | 75% | 1016.3 hPa | 0 mm | - | - | - |
| 1777981757 | 12.78° C | 75% | 1016.1 hPa | 0 mm | - | - | - |
| 1777981157 | 12.78° C | 75% | 1016 hPa | 0 mm | - | - | - |
| 1777980557 | 13.33° C | 74% | 1015.8 hPa | 0 mm | - | - | - |
| 1777979957 | 14.44° C | 66% | 1015.6 hPa | 0 mm | - | - | - |
| 1777979357 | 13.89° C | 66% | 1015.4 hPa | 0 mm | - | - | - |
| 1777978757 | 14.44° C | 66% | 1015.1 hPa | 0 mm | - | - | - |
| 1777978157 | 15° C | 63% | 1015.2 hPa | 0 mm | - | - | - |
* Rain latest hour (hover to see other rain measurements)
** Current wind speed in m/s (hover to see current wind gust speed)